Alger, OH

1:52 AM EDT on April 21, 2015 (GMT -0400)
Ada | | Change Station
CLOSE
Current Station
Personal Weather Station
Location: Ada, OH
Elevation: 912 ft
Nearby Weather Stations
Active Advisory: Wind Advisory

Elev 912 ft 40.82 °N, 83.86 °W | Updated 4 seconds ago

Mostly Cloudy
Mostly Cloudy
44.4 °F
Feels Like 40 °F
N
8.0
Wind Variable Wind from WSW
Gusts 15.0 mph

Today
High -- | Low -- °F
--% Chance of Precip.
Yesterday
High -- | Low -- °F
Precip. -- in
6:47 AM 8:20 PM
Waxing Crescent, 8% visible
Pressure 29.70 in
Visibility 10.0 miles
Clouds Overcast 7500 ft
Windchill 40 °F
Dew Point 38 °F
Humidity 77%
Rainfall 0.00 in
Snow Depth Not available.
UV 0 out of 12
Pollen 7.40 out of 12
Air Quality Not available.
Flu Activity Regional
METAR KAOH 210453Z AUTO 24012KT 10SM OVC075 08/02 A2969 RMK AO2 SLP055 T00780022 401780072

More Conditions Fewer Conditions

Pressure 29.70 in
Visibility 10.0 miles
Clouds Overcast 7500 ft
Windchill 40 °F
Dew Point 38 °F
Humidity 77%
Rainfall 0.00 in
Snow Depth Not available.
UV 0 out of 12
Pollen 7.40 out of 12
Air Quality Not available.
Flu Activity Regional
METAR KAOH 210453Z AUTO 24012KT 10SM OVC075 08/02 A2969 RMK AO2 SLP055 T00780022 401780072

More Conditions Fewer Conditions

10-Day Weather Forecast

Almanac

Astronomy

Apr. 21, 2015 Rise Set
Actual Time
Civil Twilight
Nautical Twilight
Astronomical Twilight
Moon
Length of Visible Light
Length of Day
Tomorrow will be .
, % of the Moon is Illuminated

Today's Extremes

State Highs State Lows

Community

WunderPhotos

Upload Photos

1,815,316 photos uploaded!

WunderBlogs® & News

Nearby

Air Quality

  Air Quality AQ Index Pollutant
Not available.

Snow Depth

Station Depth Elevation

Earthquake Activity

City Distance Mag. Time & Date
Minimum magnitude displayed is 2.5.

Coastal Water Temperatures

Place Temperature

Stations

Nearby Weather Stations

Station Location Temp. Windchill Dew Point Humidity Wind Precip. Elev Updated Type
                   
Wind Advisory
Statement as of 10:33 PM EDT on April 20, 2015

... Wind Advisory remains in effect from 11 am to 8 PM EDT
Tuesday...

* locations... counties along and generally north of Interstate 70.

* Winds... west 25 to 35 mph with gusts in excess of 45 mph.

* Impacts... scattered tree and power line damage is possible
along with some minor property damage in the highest gusts.
Winds this strong can make driving difficult... especially for
high profile vehicles.

Precautionary/preparedness actions...

A Wind Advisory is issued when sustained winds are forecast to be
31 to 39 mph or gusts will range between 46 and 57 mph. Winds of
these magnitudes may cause minor property damage without extra
precautions. Motorists in high profile vehicles should use
caution until the winds subside.